createdAt,value
2023-06-29T00:00:24.802Z,18.40
2023-06-29T00:02:54.106Z,18.40
2023-06-29T00:05:22.381Z,18.40
2023-06-29T00:07:50.028Z,18.40
2023-06-29T00:10:16.988Z,18.40
2023-06-29T00:12:43.697Z,18.40
2023-06-29T00:15:10.992Z,18.40
2023-06-29T00:17:37.761Z,18.40
2023-06-29T00:20:10.392Z,18.40
2023-06-29T00:22:37.510Z,18.40
2023-06-29T00:25:05.040Z,18.40
2023-06-29T00:27:31.763Z,18.40
2023-06-29T00:29:58.426Z,18.40
2023-06-29T00:32:25.089Z,18.30
2023-06-29T00:34:51.788Z,18.30
2023-06-29T00:37:18.524Z,18.30
2023-06-29T00:39:45.577Z,18.30
2023-06-29T00:42:12.252Z,18.30
2023-06-29T00:44:39.051Z,18.20
2023-06-29T00:47:06.223Z,18.20
2023-06-29T00:49:33.040Z,18.20
2023-06-29T00:52:00.152Z,18.20
2023-06-29T00:54:27.031Z,18.10
2023-06-29T00:56:53.926Z,18.10
2023-06-29T00:59:20.889Z,18.00
2023-06-29T01:01:47.626Z,17.90
2023-06-29T01:04:26.866Z,18.00
2023-06-29T01:06:59.779Z,17.90
2023-06-29T01:09:27.177Z,17.70
2023-06-29T01:11:54.215Z,17.70
2023-06-29T01:14:24.998Z,17.50
2023-06-29T01:16:52.951Z,17.40
2023-06-29T01:19:26.517Z,17.30
2023-06-29T01:22:08.511Z,17.20
2023-06-29T01:24:42.705Z,17.10
2023-06-29T01:27:10.554Z,17.10
2023-06-29T01:29:37.916Z,17.00
2023-06-29T01:32:05.678Z,16.90
2023-06-29T01:34:33.124Z,16.80
2023-06-29T01:37:19.108Z,16.80
2023-06-29T01:39:53.668Z,16.70
2023-06-29T01:42:22.088Z,16.50
2023-06-29T01:44:49.390Z,16.50
2023-06-29T01:47:18.589Z,16.50
2023-06-29T01:49:45.850Z,16.50
2023-06-29T01:52:12.894Z,16.50
2023-06-29T01:54:39.618Z,16.50
2023-06-29T01:57:07.331Z,16.50
2023-06-29T01:59:34.589Z,16.50
2023-06-29T02:02:01.764Z,16.60
2023-06-29T02:04:28.515Z,16.70
2023-06-29T02:06:55.564Z,16.60
2023-06-29T02:09:22.307Z,16.60
2023-06-29T02:11:48.986Z,16.60
2023-06-29T02:14:18.161Z,16.60
2023-06-29T02:16:47.664Z,16.60
2023-06-29T02:19:14.762Z,16.60
2023-06-29T02:21:41.416Z,16.60
2023-06-29T02:24:11.288Z,16.60
2023-06-29T02:26:37.992Z,16.60
2023-06-29T02:29:04.864Z,16.70
2023-06-29T02:31:31.595Z,16.80
2023-06-29T02:33:59.102Z,16.80
2023-06-29T02:36:26.108Z,16.90
2023-06-29T02:38:52.869Z,16.90
2023-06-29T02:41:21.377Z,16.80
2023-06-29T02:43:48.081Z,16.80
2023-06-29T02:46:15.216Z,16.70
2023-06-29T02:48:42.935Z,16.60
2023-06-29T02:51:09.790Z,16.60
2023-06-29T02:53:37.332Z,16.60
2023-06-29T02:56:04.195Z,16.60
2023-06-29T02:58:30.974Z,16.60
2023-06-29T03:00:58.610Z,16.60
2023-06-29T03:03:27.530Z,16.60
2023-06-29T03:05:54.364Z,16.60
2023-06-29T03:08:21.071Z,16.60
2023-06-29T03:10:47.936Z,16.60
2023-06-29T03:13:14.651Z,16.50
2023-06-29T03:15:41.419Z,16.50
2023-06-29T03:18:08.211Z,16.60
2023-06-29T03:20:34.881Z,16.70
2023-06-29T03:23:01.523Z,16.70
2023-06-29T03:25:28.257Z,16.80
2023-06-29T03:27:54.988Z,16.70
2023-06-29T03:30:21.890Z,16.80
2023-06-29T03:32:48.629Z,16.80
2023-06-29T03:35:15.402Z,16.90
2023-06-29T03:37:42.068Z,16.90
2023-06-29T03:40:09.301Z,16.90
2023-06-29T03:42:36.094Z,17.00
2023-06-29T03:45:03.210Z,17.00
2023-06-29T03:47:29.953Z,17.00
2023-06-29T03:49:56.682Z,17.00
2023-06-29T03:52:23.332Z,17.10
2023-06-29T03:54:50.942Z,17.20
2023-06-29T03:57:17.622Z,17.10
2023-06-29T03:59:44.309Z,17.10
2023-06-29T04:02:12.584Z,17.10
2023-06-29T04:04:39.567Z,17.10
2023-06-29T04:07:06.341Z,17.10
2023-06-29T04:09:33.198Z,17.10
2023-06-29T04:12:00.029Z,17.20
2023-06-29T04:14:26.932Z,17.30
2023-06-29T04:16:53.775Z,17.40
2023-06-29T04:19:20.536Z,17.40
2023-06-29T04:21:47.293Z,17.50
2023-06-29T04:24:13.982Z,17.60
2023-06-29T04:26:42.132Z,17.70
2023-06-29T04:29:09.042Z,17.70
2023-06-29T04:31:35.718Z,17.80
2023-06-29T04:34:03.764Z,17.80
2023-06-29T04:36:30.953Z,17.90
2023-06-29T04:38:57.808Z,18.00
2023-06-29T04:41:32.254Z,18.10
2023-06-29T04:44:00.269Z,18.20
2023-06-29T04:46:30.216Z,18.30
2023-06-29T04:48:57.103Z,18.30
2023-06-29T04:51:26.256Z,18.40
2023-06-29T04:53:53.017Z,18.50
2023-06-29T04:56:19.680Z,18.60
2023-06-29T04:58:46.344Z,18.60
2023-06-29T05:01:13.057Z,18.60
2023-06-29T05:03:40.069Z,18.60
2023-06-29T05:06:06.835Z,18.60
2023-06-29T05:08:33.482Z,18.60
2023-06-29T05:11:00.159Z,18.50
2023-06-29T05:13:27.094Z,18.40
2023-06-29T05:15:53.864Z,18.50
2023-06-29T05:18:20.611Z,18.40
2023-06-29T05:20:47.650Z,18.40
2023-06-29T05:23:14.437Z,18.40
2023-06-29T05:25:42.614Z,18.60
2023-06-29T05:28:09.567Z,18.60
2023-06-29T05:30:36.453Z,18.70
2023-06-29T05:33:03.577Z,18.80
2023-06-29T05:35:32.587Z,18.80
2023-06-29T05:37:59.520Z,18.90
2023-06-29T05:40:26.196Z,19.00
2023-06-29T05:42:53.993Z,19.10
2023-06-29T05:45:20.692Z,19.10
2023-06-29T05:47:47.444Z,19.20
2023-06-29T05:50:14.378Z,19.30
2023-06-29T05:52:41.154Z,19.30
2023-06-29T05:55:08.144Z,19.30
2023-06-29T05:57:34.876Z,19.30
2023-06-29T06:00:04.854Z,19.30
2023-06-29T06:02:33.910Z,19.40
2023-06-29T06:05:00.747Z,19.50
2023-06-29T06:07:31.725Z,19.60
2023-06-29T06:09:58.860Z,19.70
2023-06-29T06:12:25.870Z,19.80
2023-06-29T06:14:52.973Z,19.80
2023-06-29T06:17:19.808Z,19.70
2023-06-29T06:19:46.555Z,19.90
2023-06-29T06:22:13.317Z,20.00
2023-06-29T06:24:40.075Z,20.10
2023-06-29T06:27:06.937Z,20.00
2023-06-29T06:29:33.875Z,20.20
2023-06-29T06:32:00.816Z,20.10
2023-06-29T06:34:31.559Z,20.10
2023-06-29T06:36:59.071Z,20.10
2023-06-29T06:39:26.056Z,20.20
2023-06-29T06:41:52.942Z,20.30
2023-06-29T06:44:22.024Z,20.40
2023-06-29T06:46:48.823Z,20.60
2023-06-29T06:49:15.668Z,20.80
2023-06-29T06:51:42.458Z,20.90
2023-06-29T06:54:09.360Z,21.10
2023-06-29T06:56:38.443Z,21.30
2023-06-29T06:59:05.933Z,21.50
2023-06-29T07:01:32.752Z,21.60
2023-06-29T07:03:59.584Z,21.80
2023-06-29T07:06:31.935Z,21.90
2023-06-29T07:09:00.291Z,22.00
2023-06-29T07:11:28.120Z,22.00
2023-06-29T07:13:54.870Z,21.90
2023-06-29T07:16:21.645Z,21.80
2023-06-29T07:24:31.164Z,21.80
2023-06-29T07:26:57.860Z,22.00
2023-06-29T07:29:24.578Z,22.20
2023-06-29T07:31:51.308Z,22.20
2023-06-29T07:34:20.224Z,22.40
2023-06-29T07:36:46.922Z,22.40
2023-06-29T07:39:13.700Z,22.50
2023-06-29T07:41:40.517Z,22.30
2023-06-29T07:44:07.259Z,22.40
2023-06-29T07:46:34.340Z,22.20
2023-06-29T07:49:01.140Z,22.10
2023-06-29T07:51:33.517Z,22.20
2023-06-29T07:54:05.400Z,22.30
2023-06-29T07:59:02.824Z,22.30
2023-06-29T08:01:29.891Z,22.40
2023-06-29T08:04:02.886Z,22.50
2023-06-29T08:09:03.208Z,22.50
2023-06-29T08:11:30.002Z,22.50
2023-06-29T08:13:56.717Z,22.40
2023-06-29T08:16:23.521Z,22.60
2023-06-29T08:18:50.729Z,22.50
2023-06-29T08:21:17.507Z,22.60
2023-06-29T08:23:44.259Z,22.80
2023-06-29T08:26:10.942Z,23.10
2023-06-29T08:28:37.756Z,23.10
2023-06-29T08:31:06.520Z,23.10
2023-06-29T08:33:34.227Z,23.30
2023-06-29T08:36:00.919Z,23.40
2023-06-29T08:38:27.667Z,23.70
2023-06-29T08:40:59.419Z,23.70
2023-06-29T08:43:26.499Z,23.40
2023-06-29T08:45:53.289Z,23.40
2023-06-29T08:48:21.941Z,23.30
2023-06-29T08:51:01.952Z,23.50
2023-06-29T08:53:29.372Z,23.70
2023-06-29T08:55:57.934Z,23.80
2023-06-29T08:58:25.543Z,23.30
2023-06-29T09:00:54.347Z,23.60
2023-06-29T09:03:23.946Z,23.70
2023-06-29T09:05:51.728Z,23.70
2023-06-29T09:08:20.518Z,24.00
2023-06-29T09:10:48.153Z,24.10
2023-06-29T09:13:15.017Z,24.00
2023-06-29T09:15:42.651Z,24.00
2023-06-29T09:18:09.591Z,23.80
2023-06-29T09:20:36.911Z,23.80
2023-06-29T09:23:06.951Z,23.70
2023-06-29T09:25:40.613Z,23.50
2023-06-29T09:28:08.759Z,23.10
2023-06-29T09:30:40.294Z,23.00
2023-06-29T09:33:14.626Z,23.00
2023-06-29T09:35:45.565Z,23.10
2023-06-29T09:38:12.357Z,23.20
2023-06-29T09:40:57.290Z,23.10
2023-06-29T09:43:28.932Z,23.00
2023-06-29T09:46:08.972Z,22.80
2023-06-29T09:51:25.913Z,22.40
2023-06-29T09:53:52.889Z,22.40
2023-06-29T09:56:20.158Z,22.40
2023-06-29T09:58:51.393Z,22.50
2023-06-29T10:01:19.445Z,22.50
2023-06-29T10:03:46.283Z,22.70
2023-06-29T10:06:20.344Z,22.80
2023-06-29T10:08:53.614Z,22.80
2023-06-29T10:11:22.598Z,22.80
2023-06-29T10:13:51.978Z,22.70
2023-06-29T10:16:22.222Z,22.60
2023-06-29T10:18:51.777Z,22.70
2023-06-29T10:21:18.696Z,22.90
2023-06-29T10:23:46.169Z,23.00
2023-06-29T10:26:13.717Z,23.10
2023-06-29T10:28:41.421Z,23.00
2023-06-29T10:31:08.166Z,22.90
2023-06-29T10:33:46.812Z,22.80
2023-06-29T10:36:17.034Z,22.70
2023-06-29T10:38:43.891Z,22.80
2023-06-29T10:41:28.971Z,22.90
2023-06-29T10:44:01.234Z,22.90
2023-06-29T10:46:50.785Z,23.10
2023-06-29T10:49:25.776Z,23.10
2023-06-29T10:51:54.321Z,23.00
2023-06-29T10:54:25.193Z,23.00
2023-06-29T10:57:02.811Z,23.20
2023-06-29T10:59:30.878Z,23.40
2023-06-29T11:01:58.345Z,23.30
2023-06-29T11:04:25.589Z,23.50
2023-06-29T11:06:52.651Z,23.70
2023-06-29T11:09:20.782Z,23.90
2023-06-29T11:11:48.843Z,24.10
2023-06-29T11:14:16.434Z,24.00
2023-06-29T11:16:43.345Z,24.10
2023-06-29T11:22:00.919Z,24.30
2023-06-29T11:24:27.867Z,24.40
2023-06-29T11:26:55.074Z,24.60
2023-06-29T11:29:22.359Z,24.80
2023-06-29T11:31:50.445Z,24.90
2023-06-29T11:34:17.332Z,25.20
2023-06-29T11:36:50.375Z,25.20
2023-06-29T11:39:31.497Z,25.20
2023-06-29T11:41:58.251Z,25.50
2023-06-29T11:44:26.006Z,25.30
2023-06-29T11:49:27.185Z,25.60
2023-06-29T11:51:54.212Z,26.20
2023-06-29T11:54:21.241Z,26.30
2023-06-29T11:56:49.661Z,26.40
2023-06-29T11:59:17.041Z,26.50
2023-06-29T12:01:47.957Z,26.70
2023-06-29T12:04:15.465Z,26.90
2023-06-29T12:06:57.531Z,26.70
2023-06-29T12:09:31.939Z,26.90
2023-06-29T12:12:05.414Z,26.90
2023-06-29T12:14:35.069Z,27.70
2023-06-29T12:19:40.387Z,28.00
2023-06-29T12:22:16.254Z,28.40
2023-06-29T12:24:49.565Z,28.50
2023-06-29T12:27:16.296Z,28.10
2023-06-29T12:29:42.962Z,27.80
2023-06-29T12:32:09.870Z,27.50
2023-06-29T12:34:36.592Z,27.20
2023-06-29T12:37:03.743Z,26.80
2023-06-29T12:39:30.573Z,26.40
2023-06-29T12:41:57.288Z,26.10
2023-06-29T12:44:23.974Z,25.70
2023-06-29T12:46:50.735Z,25.10
2023-06-29T12:49:17.466Z,24.40
2023-06-29T12:51:44.139Z,23.80
2023-06-29T12:54:10.911Z,23.40
2023-06-29T12:56:39.616Z,23.20
2023-06-29T12:59:06.320Z,22.90
2023-06-29T13:01:33.130Z,22.90
2023-06-29T13:04:00.132Z,22.70
2023-06-29T13:06:26.881Z,22.60
2023-06-29T13:08:54.256Z,22.40
2023-06-29T13:11:21.717Z,22.40
2023-06-29T13:13:48.545Z,22.40
2023-06-29T13:16:15.298Z,22.50
2023-06-29T13:18:42.072Z,22.50
2023-06-29T13:21:08.770Z,22.60
2023-06-29T13:23:35.533Z,22.50
2023-06-29T13:26:02.284Z,22.60
2023-06-29T13:28:29.015Z,22.60
2023-06-29T13:30:55.823Z,22.40
2023-06-29T13:33:22.600Z,22.40
2023-06-29T13:35:49.482Z,22.40
2023-06-29T13:38:16.291Z,22.40
2023-06-29T13:40:42.993Z,22.40
2023-06-29T13:43:09.752Z,22.40
2023-06-29T13:45:36.462Z,22.40
2023-06-29T13:48:04.029Z,22.40
2023-06-29T13:50:41.074Z,22.30
2023-06-29T13:53:09.155Z,22.30
2023-06-29T13:55:35.902Z,22.30
2023-06-29T13:58:02.616Z,22.00
2023-06-29T14:00:29.297Z,21.90
2023-06-29T14:02:58.010Z,21.80
2023-06-29T14:05:24.932Z,21.70
2023-06-29T14:07:51.672Z,21.70
2023-06-29T14:10:18.417Z,21.60
2023-06-29T14:12:45.555Z,21.60
2023-06-29T14:15:12.270Z,21.60
2023-06-29T14:17:39.208Z,21.70
2023-06-29T14:20:06.536Z,21.90
2023-06-29T14:22:33.973Z,22.00
2023-06-29T14:25:00.772Z,21.70
2023-06-29T14:27:27.680Z,21.30
2023-06-29T14:29:54.429Z,21.00
2023-06-29T14:32:21.393Z,20.80
2023-06-29T14:34:49.374Z,20.80
2023-06-29T14:37:18.001Z,20.70
2023-06-29T14:39:44.755Z,20.70
2023-06-29T14:42:11.505Z,20.70
2023-06-29T14:44:38.318Z,20.70
2023-06-29T14:47:05.582Z,20.70
2023-06-29T14:49:32.305Z,20.60
2023-06-29T14:51:59.015Z,20.60
2023-06-29T14:54:25.833Z,20.60
2023-06-29T14:56:52.524Z,20.60
2023-06-29T14:59:19.258Z,20.70
2023-06-29T15:01:46.078Z,20.80
2023-06-29T15:04:12.931Z,20.80
2023-06-29T15:06:39.633Z,20.90
2023-06-29T15:09:06.570Z,20.90
2023-06-29T15:11:35.183Z,21.00
2023-06-29T15:14:01.900Z,21.10
2023-06-29T15:16:30.537Z,21.20
2023-06-29T15:19:00.288Z,21.20
2023-06-29T15:21:27.765Z,21.30
2023-06-29T15:23:54.767Z,21.40
2023-06-29T15:26:23.912Z,21.40
2023-06-29T15:28:50.834Z,21.30
2023-06-29T15:31:17.580Z,21.30
2023-06-29T15:33:44.401Z,21.20
2023-06-29T15:36:11.063Z,21.20
2023-06-29T15:38:38.418Z,21.00
2023-06-29T15:41:05.141Z,21.00
2023-06-29T15:43:32.292Z,21.00
2023-06-29T15:45:59.042Z,21.00
2023-06-29T15:48:25.951Z,21.00
2023-06-29T15:50:52.872Z,20.90
2023-06-29T15:53:19.968Z,20.90
2023-06-29T15:55:47.104Z,20.90
2023-06-29T15:58:14.066Z,20.80
2023-06-29T16:00:40.863Z,20.80
2023-06-29T16:03:07.847Z,20.80
2023-06-29T16:05:35.936Z,20.70
2023-06-29T16:08:03.343Z,20.70
2023-06-29T16:10:30.193Z,20.60
2023-06-29T16:12:57.048Z,20.50
2023-06-29T16:15:23.756Z,20.50
2023-06-29T16:17:50.517Z,20.50
2023-06-29T16:20:17.313Z,20.50
2023-06-29T16:22:44.099Z,20.60
2023-06-29T16:25:10.927Z,20.60
2023-06-29T16:27:37.617Z,20.60
2023-06-29T16:30:05.099Z,20.60
2023-06-29T16:32:31.972Z,20.60
2023-06-29T16:34:58.796Z,20.60
2023-06-29T16:37:26.909Z,20.60
2023-06-29T16:39:53.667Z,20.50
2023-06-29T16:42:20.451Z,20.50
2023-06-29T16:44:47.203Z,20.50
2023-06-29T16:47:14.062Z,20.50
2023-06-29T16:49:40.830Z,20.50
2023-06-29T16:52:08.530Z,20.60
2023-06-29T16:54:35.702Z,20.70
2023-06-29T16:57:02.610Z,20.70
2023-06-29T16:59:30.209Z,20.70
2023-06-29T17:01:57.686Z,20.80
2023-06-29T17:04:25.824Z,20.70
2023-06-29T17:06:52.749Z,20.80
2023-06-29T17:09:19.474Z,20.90
2023-06-29T17:11:46.181Z,20.90
2023-06-29T17:14:12.931Z,21.00
2023-06-29T17:16:39.977Z,21.10
2023-06-29T17:19:07.056Z,21.20
2023-06-29T17:21:33.704Z,21.40
2023-06-29T17:24:01.674Z,21.50
2023-06-29T17:26:28.722Z,21.70
2023-06-29T17:28:55.548Z,21.80
2023-06-29T17:31:22.235Z,22.00
2023-06-29T17:33:54.579Z,22.00
2023-06-29T17:36:23.241Z,22.10
2023-06-29T17:38:50.212Z,22.20
2023-06-29T17:41:16.928Z,22.10
2023-06-29T17:43:43.595Z,21.90
2023-06-29T17:46:10.936Z,21.70
2023-06-29T17:48:37.772Z,21.50
2023-06-29T17:51:18.403Z,21.40
2023-06-29T17:53:47.022Z,21.20
2023-06-29T17:56:15.371Z,21.10
2023-06-29T17:58:43.380Z,21.00
2023-06-29T18:01:10.089Z,20.90
2023-06-29T18:03:39.255Z,20.90
2023-06-29T18:06:09.127Z,20.80
2023-06-29T18:08:35.828Z,20.80
2023-06-29T18:11:02.644Z,20.80
2023-06-29T18:13:29.312Z,20.70
2023-06-29T18:15:56.398Z,20.80
2023-06-29T18:18:23.114Z,20.80
2023-06-29T18:20:49.810Z,20.80
2023-06-29T18:23:16.499Z,20.80
2023-06-29T18:25:43.661Z,20.80
2023-06-29T18:28:10.624Z,20.90
2023-06-29T18:30:37.337Z,20.90
2023-06-29T18:33:04.102Z,21.00
2023-06-29T18:35:30.818Z,21.00
2023-06-29T18:37:57.486Z,21.00
2023-06-29T18:40:27.961Z,20.90
2023-06-29T18:42:55.054Z,21.00
2023-06-29T18:45:24.054Z,21.00
2023-06-29T18:47:50.769Z,21.00
2023-06-29T18:50:17.441Z,21.00
2023-06-29T18:52:44.358Z,20.90
2023-06-29T18:55:11.086Z,20.90
2023-06-29T18:57:37.810Z,20.80
2023-06-29T19:00:05.086Z,20.70
2023-06-29T19:02:31.798Z,20.60
2023-06-29T19:04:58.530Z,20.60
2023-06-29T19:07:25.262Z,20.50
2023-06-29T19:09:51.979Z,20.40
2023-06-29T19:12:18.644Z,20.40
2023-06-29T19:14:45.368Z,20.30
2023-06-29T19:17:12.146Z,20.30
2023-06-29T19:19:39.038Z,20.20
2023-06-29T19:22:06.027Z,20.20
2023-06-29T19:24:32.738Z,20.20
2023-06-29T19:26:59.595Z,20.10
2023-06-29T19:29:26.327Z,20.10
2023-06-29T19:31:53.067Z,20.10
2023-06-29T19:34:19.784Z,20.00
2023-06-29T19:36:47.831Z,19.90
2023-06-29T19:39:14.527Z,19.90
2023-06-29T19:41:41.208Z,19.90
2023-06-29T19:44:08.368Z,19.90
2023-06-29T19:46:35.218Z,19.90
2023-06-29T19:49:01.997Z,19.90
2023-06-29T19:51:34.783Z,19.90
2023-06-29T19:54:01.921Z,19.90
2023-06-29T19:56:29.191Z,19.90
2023-06-29T19:58:55.947Z,19.90
2023-06-29T20:01:22.730Z,19.90
2023-06-29T20:03:49.560Z,19.90
2023-06-29T20:06:16.379Z,19.80
2023-06-29T20:08:43.071Z,19.80
2023-06-29T20:11:09.764Z,19.80
2023-06-29T20:13:36.476Z,19.80
2023-06-29T20:16:03.308Z,19.80
2023-06-29T20:18:30.010Z,19.70
2023-06-29T20:20:56.678Z,19.80
2023-06-29T20:23:23.558Z,19.70
2023-06-29T20:25:50.241Z,19.70
2023-06-29T20:28:16.914Z,19.60
2023-06-29T20:30:44.893Z,19.50
2023-06-29T20:33:11.559Z,19.30
2023-06-29T20:35:38.247Z,19.00
2023-06-29T20:38:04.975Z,18.70
2023-06-29T20:40:31.709Z,18.50
2023-06-29T20:42:59.884Z,18.50
2023-06-29T20:45:27.085Z,18.40
2023-06-29T20:47:53.976Z,18.30
2023-06-29T20:50:20.864Z,18.30
2023-06-29T20:52:47.535Z,18.30
2023-06-29T20:55:14.312Z,18.30
2023-06-29T20:57:41.056Z,18.20
2023-06-29T21:00:11.142Z,18.20
2023-06-29T21:02:38.023Z,18.20
2023-06-29T21:05:05.964Z,18.20
2023-06-29T21:07:33.062Z,18.20
2023-06-29T21:09:59.957Z,18.10
2023-06-29T21:12:27.256Z,18.10
2023-06-29T21:14:54.078Z,18.10
2023-06-29T21:17:21.134Z,18.00
2023-06-29T21:19:48.076Z,17.90
2023-06-29T21:22:16.002Z,17.90
2023-06-29T21:24:45.185Z,17.90
2023-06-29T21:27:15.286Z,18.00
2023-06-29T21:29:45.455Z,17.90
2023-06-29T21:32:13.057Z,17.90
2023-06-29T21:34:40.481Z,17.90
2023-06-29T21:37:08.550Z,17.70
2023-06-29T21:39:35.452Z,17.70
2023-06-29T21:42:02.172Z,17.60
2023-06-29T21:44:28.858Z,17.60
2023-06-29T21:46:55.630Z,17.50
2023-06-29T21:49:22.503Z,17.50
2023-06-29T21:51:49.390Z,17.40
2023-06-29T21:54:16.105Z,17.40
2023-06-29T21:56:42.832Z,17.30
2023-06-29T21:59:09.514Z,17.30
2023-06-29T22:01:36.292Z,17.20
2023-06-29T22:04:03.272Z,17.10
2023-06-29T22:06:30.382Z,17.20
2023-06-29T22:08:57.642Z,17.10
2023-06-29T22:11:28.139Z,17.10
2023-06-29T22:13:55.261Z,17.10
2023-06-29T22:16:24.255Z,17.10
2023-06-29T22:18:54.138Z,17.00
2023-06-29T22:21:22.562Z,17.00
2023-06-29T22:23:54.026Z,17.10
2023-06-29T22:26:21.836Z,17.10
2023-06-29T22:28:49.010Z,17.00
2023-06-29T22:31:18.484Z,17.00
2023-06-29T22:33:46.436Z,17.00
2023-06-29T22:36:14.901Z,17.00
2023-06-29T22:38:42.598Z,17.00
2023-06-29T22:41:10.222Z,17.00
2023-06-29T22:43:37.509Z,17.00
2023-06-29T22:46:04.491Z,17.00
2023-06-29T22:48:31.205Z,16.90
2023-06-29T22:50:58.004Z,16.90
2023-06-29T22:53:24.856Z,16.80
2023-06-29T22:55:51.826Z,16.80
2023-06-29T22:58:25.548Z,16.80
2023-06-29T23:00:54.251Z,16.80
2023-06-29T23:03:21.872Z,16.80
2023-06-29T23:05:49.512Z,16.70
2023-06-29T23:08:17.544Z,16.70
2023-06-29T23:10:47.365Z,16.80
2023-06-29T23:13:17.338Z,16.90
2023-06-29T23:15:45.254Z,16.90
2023-06-29T23:18:13.149Z,16.90
2023-06-29T23:20:45.065Z,17.00
2023-06-29T23:23:15.878Z,17.00
2023-06-29T23:25:43.397Z,17.00
2023-06-29T23:28:10.600Z,17.10
2023-06-29T23:30:37.395Z,17.10
2023-06-29T23:33:04.388Z,17.10
2023-06-29T23:35:31.153Z,17.10
2023-06-29T23:37:57.890Z,17.10
2023-06-29T23:40:26.486Z,17.10
2023-06-29T23:42:53.172Z,17.10
2023-06-29T23:45:19.840Z,17.10
2023-06-29T23:47:46.602Z,17.10
2023-06-29T23:50:14.113Z,17.10
2023-06-29T23:52:41.832Z,17.10
2023-06-29T23:55:10.537Z,17.10
2023-06-29T23:57:37.234Z,17.10
